Time;durP1;ratioP1;P1;durP2;ratioP2;P2;SDS_P1;SDS_P2;PMS_P1;PMS_P2;Temp;Humidity;BMP_temperature;BMP_pressure;BME280_temperature;BME280_humidity;BME280_pressure;Samples;Min_cycle;Max_cycle;Signal;HPM_P1;HPM_P2
2022/05/10 00:00:15;;;;;;;4.97;4.57;;;23.60;50.20;25.40;101238.00;;;;5047461;28;20662;-55
2022/05/10 00:02:41;;;;;;;5.20;4.80;;;23.60;50.20;25.40;101229.00;;;;5046022;28;20718;-56
2022/05/10 00:05:07;;;;;;;5.07;4.57;;;23.60;50.00;25.40;101247.00;;;;5045982;28;20288;-54
2022/05/10 00:07:34;;;;;;;5.17;4.77;;;23.60;50.20;25.30;101246.00;;;;5046087;28;20794;-54
2022/05/10 00:10:00;;;;;;;5.10;4.60;;;23.50;50.10;25.30;101246.00;;;;5045816;28;20222;-55
2022/05/10 00:12:26;;;;;;;4.63;4.23;;;23.50;50.10;25.30;101241.00;;;;5047222;28;20810;-54
2022/05/10 00:14:51;;;;;;;4.53;4.23;;;23.50;50.10;25.30;101251.00;;;;5045945;28;20300;-55
2022/05/10 00:17:34;;;;;;;4.77;4.30;;;23.50;50.10;25.20;101246.00;;;;5047601;28;20174;-55
2022/05/10 00:20:00;;;;;;;4.57;4.17;;;23.50;50.00;25.20;101238.00;;;;5047823;28;20163;-54
2022/05/10 00:22:25;;;;;;;4.40;4.10;;;23.50;49.90;25.20;101247.00;;;;5047708;28;20276;-56
2022/05/10 00:24:51;;;;;;;5.10;4.60;;;23.50;50.00;25.20;101239.00;;;;5046973;28;20548;-55
2022/05/10 00:27:17;;;;;;;5.17;4.70;;;23.50;50.10;25.20;101243.00;;;;5046861;28;20236;-55
2022/05/10 00:29:43;;;;;;;5.40;4.90;;;23.50;50.00;25.20;101241.00;;;;5045856;28;20209;-55
2022/05/10 00:32:09;;;;;;;5.00;4.60;;;23.40;50.00;25.10;101243.00;;;;5047478;28;20174;-56
2022/05/10 00:34:35;;;;;;;5.30;4.80;;;23.40;50.00;25.10;101241.00;;;;5046182;28;20186;-55
2022/05/10 00:37:00;;;;;;;4.90;4.50;;;23.40;50.10;25.10;101239.00;;;;5046775;28;20174;-56
2022/05/10 00:39:26;;;;;;;5.10;4.70;;;23.40;50.10;25.10;101233.00;;;;5046157;28;20186;-54
2022/05/10 00:42:18;;;;;;;5.20;4.80;;;23.40;50.10;25.10;101229.00;;;;5047009;28;20178;-55
2022/05/10 00:45:05;;;;;;;5.10;4.70;;;23.40;50.10;25.00;101231.00;;;;5043338;28;20262;-56
2022/05/10 00:47:35;;;;;;;5.20;4.70;;;23.30;50.10;25.00;101242.00;;;;5045626;28;20275;-55
2022/05/10 00:50:43;;;;;;;4.67;4.37;;;23.30;50.20;25.00;101218.00;;;;5045515;28;20193;-55
2022/05/10 00:53:25;;;;;;;5.80;4.80;;;23.30;50.10;25.00;101240.00;;;;5045859;28;20808;-54
2022/05/10 00:56:08;;;;;;;5.10;4.70;;;23.30;50.10;24.90;101231.00;;;;5045353;28;20193;-57
2022/05/10 00:58:52;;;;;;;4.70;4.40;;;23.30;50.20;24.90;101230.00;;;;5045421;28;20163;-54
2022/05/10 01:01:23;;;;;;;4.93;4.53;;;23.20;50.10;24.90;101228.00;;;;5049679;28;20189;-57
2022/05/10 01:04:08;;;;;;;4.70;4.40;;;23.20;50.00;24.90;101217.00;;;;5060069;28;20225;-53
2022/05/10 01:06:39;;;;;;;5.20;4.77;;;23.20;50.00;24.80;101212.00;;;;5047428;28;20158;-54
2022/05/10 01:09:33;;;;;;;5.17;4.77;;;23.20;50.10;24.80;101224.00;;;;5045106;28;20198;-54
2022/05/10 01:12:16;;;;;;;4.87;4.47;;;23.20;50.10;24.80;101223.00;;;;5045691;28;20181;-54
2022/05/10 01:15:02;;;;;;;5.27;4.87;;;23.20;50.20;24.80;101215.00;;;;5046364;28;20182;-52
2022/05/10 01:17:28;;;;;;;5.10;4.70;;;23.20;50.20;24.70;101218.00;;;;5045160;28;20209;-56
2022/05/10 01:19:53;;;;;;;5.33;4.70;;;23.20;50.20;24.70;101212.00;;;;5044795;28;20793;-53
2022/05/10 01:22:54;;;;;;;5.00;4.60;;;23.20;50.30;24.70;101211.00;;;;5046599;28;20170;-53
2022/05/10 01:25:56;;;;;;;5.23;4.83;;;23.10;50.20;24.70;101211.00;;;;5046106;28;20190;-54
2022/05/10 01:28:33;;;;;;;5.17;4.70;;;23.00;50.30;24.60;101214.00;;;;5045019;28;20158;-52
2022/05/10 01:31:03;;;;;;;5.07;4.67;;;23.10;50.30;24.60;101204.00;;;;5044964;28;20193;-54
2022/05/10 01:33:53;;;;;;;5.20;4.80;;;23.10;50.30;24.60;101208.00;;;;5044880;28;20182;-55
2022/05/10 01:36:23;;;;;;;5.00;4.70;;;23.10;50.20;24.60;101207.00;;;;5044452;28;20213;-55
2022/05/10 01:38:54;;;;;;;5.17;4.73;;;23.00;50.20;24.50;101208.00;;;;5045761;28;20643;-53
2022/05/10 01:41:37;;;;;;;5.30;4.80;;;23.00;50.20;24.50;101196.00;;;;5044921;28;20878;-55
2022/05/10 01:44:26;;;;;;;5.00;4.57;;;23.00;50.10;24.50;101205.00;;;;5046172;28;20338;-54
2022/05/10 01:47:03;;;;;;;5.03;4.73;;;23.00;50.20;24.50;101195.00;;;;5044293;28;20170;-53
2022/05/10 01:49:46;;;;;;;5.57;4.70;;;23.00;50.20;24.50;101198.00;;;;5043937;28;20655;-54
2022/05/10 01:52:36;;;;;;;5.77;5.07;;;23.00;50.20;24.40;101186.00;;;;5044129;28;20163;-55
2022/05/10 01:55:09;;;;;;;5.77;4.93;;;23.00;50.20;24.40;101194.00;;;;5044048;28;20678;-54
2022/05/10 01:57:37;;;;;;;5.23;4.77;;;23.00;50.20;24.40;101191.00;;;;5044813;28;20155;-53
2022/05/10 02:00:19;;;;;;;5.10;4.70;;;23.00;50.20;24.40;101182.00;;;;5044431;28;20216;-55
2022/05/10 02:03:14;;;;;;;5.00;4.60;;;22.90;50.10;24.40;101179.00;;;;5027216;28;20193;-54
2022/05/10 02:05:54;;;;;;;5.10;4.70;;;23.00;50.20;24.10;101186.00;;;;5030997;28;20870;-54
2022/05/10 02:08:56;;;;;;;5.13;4.63;;;22.90;50.00;24.30;101171.00;;;;5055361;28;20201;-57
2022/05/10 02:11:22;;;;;;;5.00;4.60;;;22.90;50.00;24.30;101183.00;;;;5056301;28;20169;-55
2022/05/10 02:14:09;;;;;;;5.03;4.60;;;22.90;49.90;24.30;101171.00;;;;5043779;28;20200;-53
2022/05/10 02:16:50;;;;;;;5.33;4.83;;;22.80;49.90;24.20;101178.00;;;;5044249;28;20717;-54
2022/05/10 02:19:27;;;;;;;5.27;4.77;;;22.80;49.80;24.20;101173.00;;;;5043621;28;20158;-53
2022/05/10 02:22:02;;;;;;;4.63;4.23;;;22.80;49.80;24.20;101179.00;;;;5043755;28;20185;-54
2022/05/10 02:24:35;;;;;;;4.83;4.43;;;22.80;49.90;24.20;101177.00;;;;5044070;28;20720;-54
2022/05/10 02:27:11;;;;;;;4.80;4.50;;;22.90;49.90;24.20;101180.00;;;;5045535;28;20827;-54
2022/05/10 02:29:47;;;;;;;5.07;4.67;;;22.80;49.80;24.20;101193.00;;;;5043817;28;20212;-55
2022/05/10 02:35:12;;;;;;;4.80;4.40;;;22.80;50.00;24.10;101183.00;;;;5043814;28;20201;-55
2022/05/10 02:37:38;;;;;;;4.77;4.37;;;22.80;50.10;24.10;101189.00;;;;5044693;28;20170;-54
2022/05/10 02:40:04;;;;;;;5.10;4.70;;;22.80;50.00;24.10;101196.00;;;;5045183;28;20742;-53
2022/05/10 02:42:30;;;;;;;4.67;4.33;;;22.70;49.90;24.00;101195.00;;;;5045247;28;20178;-54
2022/05/10 02:44:56;;;;;;;4.97;4.53;;;22.70;49.90;24.00;101190.00;;;;5043789;28;20190;-54
2022/05/10 02:47:34;;;;;;;4.77;4.40;;;22.70;49.80;24.00;101193.00;;;;5043006;28;20183;-55
2022/05/10 02:50:00;;;;;;;5.00;4.50;;;22.70;49.80;24.00;101182.00;;;;5044788;28;20213;-54
2022/05/10 02:52:26;;;;;;;5.47;4.93;;;22.70;49.90;23.80;101196.00;;;;5044968;28;20178;-54
2022/05/10 02:54:56;;;;;;;4.57;4.17;;;22.70;49.80;24.00;101185.00;;;;5043495;28;20245;-54
2022/05/10 02:57:23;;;;;;;5.00;4.70;;;22.70;50.00;23.90;101184.00;;;;5043145;28;20171;-54
2022/05/10 02:59:49;;;;;;;5.13;4.63;;;22.60;50.00;23.90;101177.00;;;;5043738;28;20258;-53
2022/05/10 03:02:22;;;;;;;4.90;4.50;;;22.70;50.10;23.90;101180.00;;;;5045493;28;20483;-53
2022/05/10 03:04:57;;;;;;;4.60;4.30;;;22.70;50.00;23.90;101167.00;;;;5047858;28;20207;-54
2022/05/10 03:07:26;;;;;;;4.80;4.50;;;22.60;49.80;23.90;101164.00;;;;5059766;28;20154;-56
2022/05/10 03:09:51;;;;;;;4.70;4.30;;;22.60;49.80;23.80;101164.00;;;;5057597;28;20198;-54
2022/05/10 03:12:17;;;;;;;5.00;4.60;;;22.60;49.80;23.80;101158.00;;;;5057772;28;20592;-55
2022/05/10 03:14:43;;;;;;;5.03;4.70;;;22.50;49.90;23.80;101148.00;;;;5049624;28;20194;-54
2022/05/10 03:17:10;;;;;;;5.20;4.80;;;22.60;50.00;23.80;101151.00;;;;5046829;28;20198;-54
2022/05/10 03:19:37;;;;;;;4.80;4.40;;;22.50;50.00;23.80;101151.00;;;;5048264;28;20178;-53
2022/05/10 03:22:03;;;;;;;5.10;4.70;;;22.50;49.80;23.70;101139.00;;;;5046800;28;20298;-54
2022/05/10 03:24:30;;;;;;;4.87;4.47;;;22.50;49.80;23.70;101145.00;;;;5047693;28;20193;-54
2022/05/10 03:26:55;;;;;;;5.10;4.70;;;22.50;49.90;23.50;101142.00;;;;5046598;28;20174;-53
2022/05/10 03:29:21;;;;;;;5.30;4.80;;;22.50;50.00;23.70;101141.00;;;;5046955;28;20522;-53
2022/05/10 03:31:47;;;;;;;5.37;4.60;;;22.50;50.10;23.70;101138.00;;;;5047866;28;20193;-55
2022/05/10 03:36:57;;;;;;;5.00;4.60;;;22.40;50.00;23.60;101139.00;;;;5047566;28;20246;-55
2022/05/10 03:39:22;;;;;;;5.57;4.60;;;22.40;50.30;23.60;101141.00;;;;5047762;28;20174;-54
2022/05/10 03:41:48;;;;;;;4.80;4.40;;;22.40;50.10;23.60;101136.00;;;;5047546;28;20636;-55
2022/05/10 03:44:14;;;;;;;4.97;4.47;;;22.40;50.20;23.60;101136.00;;;;5047778;28;20170;-54
2022/05/10 03:46:39;;;;;;;4.40;4.10;;;22.40;50.10;23.60;101134.00;;;;5047595;28;20166;-54
2022/05/10 03:49:05;;;;;;;5.03;4.63;;;22.40;50.00;23.50;101135.00;;;;5047297;28;20815;-55
2022/05/10 03:51:31;;;;;;;5.10;4.70;;;22.40;50.00;23.50;101130.00;;;;5047583;28;20241;-53
2022/05/10 03:53:58;;;;;;;7.43;6.63;;;22.40;50.00;23.50;101132.00;;;;5046328;28;20167;-54
2022/05/10 03:56:23;;;;;;;5.33;4.87;;;22.40;50.00;23.50;101132.00;;;;5047148;28;20190;-53
2022/05/10 03:58:49;;;;;;;5.70;5.10;;;22.40;50.00;23.50;101131.00;;;;5047560;28;20702;-54
2022/05/10 04:01:18;;;;;;;5.40;5.00;;;22.30;49.90;23.40;101134.00;;;;5047537;28;20663;-53
2022/05/10 04:03:44;;;;;;;5.20;4.80;;;22.30;49.90;23.40;101130.00;;;;5046177;28;20261;-54
2022/05/10 04:06:10;;;;;;;5.17;4.77;;;22.20;50.00;23.20;101133.00;;;;5046817;28;20329;-53
2022/05/10 04:08:36;;;;;;;5.20;4.80;;;22.30;50.10;23.40;101129.00;;;;5044894;28;20182;-55
2022/05/10 04:11:04;;;;;;;4.77;4.37;;;22.20;50.00;23.40;101141.00;;;;5035668;28;20195;-55
2022/05/10 04:13:29;;;;;;;4.90;4.40;;;22.20;49.90;23.40;101136.00;;;;5039150;28;20166;-54
2022/05/10 04:15:56;;;;;;;5.13;4.70;;;22.20;50.00;23.30;101133.00;;;;5045273;28;20178;-54
2022/05/10 04:18:21;;;;;;;5.20;4.80;;;22.20;50.00;23.30;101121.00;;;;5046297;28;20166;-54
2022/05/10 04:20:47;;;;;;;5.33;4.83;;;22.20;50.00;23.30;101123.00;;;;5046718;28;20425;-54
2022/05/10 04:23:13;;;;;;;5.27;4.77;;;22.20;49.90;23.30;101125.00;;;;5046099;28;20174;-54
2022/05/10 04:25:38;;;;;;;5.10;4.70;;;22.20;50.00;23.30;101129.00;;;;5046242;28;20190;-53
2022/05/10 04:28:05;;;;;;;5.10;4.40;;;22.10;50.10;23.30;101121.00;;;;5046238;28;20666;-53
2022/05/10 04:30:31;;;;;;;5.00;4.60;;;22.10;50.10;23.30;101124.00;;;;5046409;28;20193;-52
2022/05/10 04:32:56;;;;;;;5.30;4.90;;;22.10;50.20;23.20;101138.00;;;;5046753;28;20175;-53
2022/05/10 04:35:22;;;;;;;4.90;4.50;;;22.10;50.00;23.20;101130.00;;;;5046651;28;20229;-55
2022/05/10 04:37:48;;;;;;;5.10;4.60;;;22.00;50.10;23.20;101131.00;;;;5046186;28;20632;-53
2022/05/10 04:42:58;;;;;;;4.60;4.07;;;21.90;50.00;23.20;101133.00;;;;5044680;28;20161;-55
2022/05/10 04:45:23;;;;;;;4.80;4.40;;;21.90;50.10;23.20;101127.00;;;;5045012;28;20190;-55
2022/05/10 04:47:49;;;;;;;5.30;4.80;;;21.90;50.10;23.20;101125.00;;;;5044382;28;20388;-54
2022/05/10 04:50:15;;;;;;;5.30;4.50;;;21.90;50.10;23.10;101135.00;;;;5044125;28;20194;-55
2022/05/10 04:52:41;;;;;;;5.20;4.80;;;21.90;50.10;23.10;101139.00;;;;5044568;28;20201;-55
2022/05/10 04:55:08;;;;;;;4.83;4.47;;;21.90;50.10;23.10;101130.00;;;;5045117;28;20548;-54
2022/05/10 04:57:38;;;;;;;5.07;4.67;;;21.80;50.30;23.10;101138.00;;;;5045867;28;20159;-55
2022/05/10 05:00:06;;;;;;;4.80;4.40;;;21.80;50.40;23.00;101149.00;;;;5043218;28;20163;-54
2022/05/10 05:02:31;;;;;;;4.87;4.47;;;21.80;50.20;23.00;101145.00;;;;5044077;28;20273;-55
2022/05/10 05:04:57;;;;;;;5.00;4.60;;;21.80;50.10;23.00;101145.00;;;;5045160;28;20512;-54
2022/05/10 05:07:24;;;;;;;4.70;4.30;;;21.80;50.10;23.00;101140.00;;;;5044675;28;20562;-55
2022/05/10 05:09:49;;;;;;;4.90;4.40;;;21.80;50.20;22.90;101138.00;;;;5045257;28;20267;-55
2022/05/10 05:12:16;;;;;;;5.13;4.63;;;21.80;50.20;22.90;101128.00;;;;5045288;28;20198;-55
2022/05/10 05:14:42;;;;;;;4.97;4.57;;;21.80;50.30;22.90;101143.00;;;;5045155;28;20915;-54
2022/05/10 05:17:08;;;;;;;4.90;4.50;;;21.80;50.30;22.80;101137.00;;;;5045029;28;20828;-54
2022/05/10 05:19:33;;;;;;;6.60;6.10;;;21.80;50.20;22.80;101147.00;;;;5044853;28;20174;-54
2022/05/10 05:21:59;;;;;;;10.27;9.27;;;21.80;50.40;22.80;101142.00;;;;5045537;28;20253;-55
2022/05/10 05:24:25;;;;;;;5.77;5.33;;;21.80;50.60;22.80;101150.00;;;;5044205;28;20198;-55
2022/05/10 05:26:52;;;;;;;5.63;5.17;;;21.80;50.80;22.80;101158.00;;;;5047099;28;20178;-56
2022/05/10 05:29:18;;;;;;;5.03;4.63;;;21.70;50.50;22.80;101149.00;;;;5045188;28;20202;-54
2022/05/10 05:31:44;;;;;;;5.40;4.90;;;21.70;50.60;22.70;101150.00;;;;5046034;28;20173;-54
2022/05/10 05:34:10;;;;;;;5.40;5.00;;;21.70;50.70;22.70;101157.00;;;;5044390;28;20448;-53
2022/05/10 05:36:36;;;;;;;5.00;4.60;;;21.70;50.70;22.70;101152.00;;;;5045393;28;20179;-53
2022/05/10 05:39:01;;;;;;;5.27;4.87;;;21.70;50.70;22.70;101159.00;;;;5044930;28;20174;-55
2022/05/10 05:41:27;;;;;;;4.83;4.40;;;21.70;50.90;22.70;101159.00;;;;5045141;28;20169;-55
2022/05/10 05:43:53;;;;;;;4.70;4.33;;;21.70;51.10;22.70;101141.00;;;;5045236;28;20743;-53
2022/05/10 05:46:18;;;;;;;4.93;4.53;;;21.70;51.80;22.70;101090.00;;;;5045186;28;20804;-54
2022/05/10 05:48:44;;;;;;;5.47;4.50;;;21.70;51.00;22.70;101142.00;;;;5044754;28;20177;-54
2022/05/10 05:51:10;;;;;;;4.90;4.50;;;21.60;51.10;22.70;101148.00;;;;5045234;28;20190;-54
2022/05/10 05:53:36;;;;;;;5.53;4.30;;;21.70;51.20;22.70;101149.00;;;;5044890;28;20710;-55
2022/05/10 05:56:11;;;;;;;5.17;4.67;;;21.60;51.00;22.70;101142.00;;;;5045009;28;20616;-54
2022/05/10 05:58:38;;;;;;;4.57;4.20;;;21.60;51.20;22.60;101147.00;;;;5044876;28;20626;-54
2022/05/10 06:01:11;;;;;;;4.50;4.13;;;21.50;50.90;22.60;101147.00;;;;5043662;28;20591;-55
2022/05/10 06:03:37;;;;;;;4.97;4.50;;;21.60;51.00;22.60;101133.00;;;;5044921;28;20220;-53
2022/05/10 06:06:03;;;;;;;4.70;4.30;;;21.50;51.00;22.60;101149.00;;;;5044204;28;20205;-53
2022/05/10 06:08:28;;;;;;;4.80;4.30;;;21.50;51.10;22.60;101141.00;;;;5044602;28;20257;-55
2022/05/10 06:10:55;;;;;;;4.53;4.13;;;21.50;50.90;22.60;101148.00;;;;5044598;28;20662;-53
2022/05/10 06:13:21;;;;;;;4.33;3.97;;;21.50;51.00;22.50;101138.00;;;;5045256;28;20188;-55
2022/05/10 06:15:47;;;;;;;4.60;4.20;;;21.50;51.20;22.50;101144.00;;;;5044909;28;20225;-54
2022/05/10 06:18:15;;;;;;;4.50;4.10;;;21.50;51.40;22.50;101141.00;;;;5044657;28;20679;-55
2022/05/10 06:20:40;;;;;;;4.30;4.00;;;21.50;51.20;22.50;101138.00;;;;5044929;28;20227;-53
2022/05/10 06:23:06;;;;;;;4.50;4.10;;;21.50;51.40;22.50;101134.00;;;;5045052;28;20186;-55
2022/05/10 06:25:32;;;;;;;4.40;4.00;;;21.50;51.00;22.50;101142.00;;;;5044936;28;20713;-55
2022/05/10 06:27:58;;;;;;;4.10;3.80;;;21.50;51.10;22.50;101129.00;;;;5043254;28;20212;-53
2022/05/10 06:30:24;;;;;;;4.50;4.10;;;21.50;51.00;22.50;101137.00;;;;5044424;28;20207;-53
2022/05/10 06:32:50;;;;;;;4.83;4.20;;;21.50;51.30;22.50;101142.00;;;;5043783;28;20170;-54
2022/05/10 06:35:16;;;;;;;4.43;4.03;;;21.40;51.00;22.50;101128.00;;;;5044863;28;20561;-54
2022/05/10 06:40:26;;;;;;;4.60;4.20;;;21.50;51.20;22.50;101127.00;;;;5049059;28;20180;-53
2022/05/10 06:42:52;;;;;;;4.77;4.33;;;21.50;52.10;22.50;101128.00;;;;5048581;28;20182;-54
2022/05/10 06:45:18;;;;;;;5.30;4.13;;;21.40;51.30;22.50;101122.00;;;;5049006;28;20201;-54
2022/05/10 06:47:46;;;;;;;4.40;4.00;;;21.40;51.40;22.50;101116.00;;;;5047107;28;20700;-53
2022/05/10 06:50:14;;;;;;;4.90;4.30;;;21.40;51.30;22.40;101118.00;;;;5047052;28;20212;-54
2022/05/10 06:52:40;;;;;;;4.77;4.37;;;21.40;51.60;22.50;101119.00;;;;5030686;28;20925;-53
2022/05/10 06:55:07;;;;;;;5.10;4.63;;;21.50;51.40;22.50;101114.00;;;;5048587;28;20198;-54
2022/05/10 06:57:33;;;;;;;5.67;4.60;;;21.40;51.90;22.50;101126.00;;;;5048044;28;20180;-55
2022/05/10 06:59:58;;;;;;;5.00;4.60;;;21.50;51.70;22.50;101110.00;;;;5048082;28;20242;-54
2022/05/10 07:02:24;;;;;;;4.70;4.30;;;21.40;51.60;22.50;101112.00;;;;5048456;28;20231;-54
2022/05/10 07:04:51;;;;;;;5.97;4.73;;;21.40;51.80;22.50;101106.00;;;;5048327;28;20704;-55
2022/05/10 07:07:17;;;;;;;4.57;4.17;;;21.40;51.90;22.40;101099.00;;;;5046554;28;20186;-55
2022/05/10 07:09:44;;;;;;;4.37;3.80;;;21.40;51.60;22.50;101108.00;;;;5047608;28;20707;-53
2022/05/10 07:12:10;;;;;;;7.23;4.63;;;21.40;51.70;22.40;101109.00;;;;5048004;28;20182;-53
2022/05/10 07:14:36;;;;;;;7.37;4.10;;;21.40;51.90;22.40;101104.00;;;;5047257;28;20269;-54
2022/05/10 07:17:02;;;;;;;4.60;4.20;;;21.40;51.80;22.50;101100.00;;;;5047500;28;20173;-54
2022/05/10 07:19:27;;;;;;;5.27;4.73;;;21.40;52.00;22.50;101107.00;;;;5047507;28;20185;-56
2022/05/10 07:21:53;;;;;;;4.87;4.30;;;21.40;51.90;22.50;101093.00;;;;5048358;28;20169;-56
2022/05/10 07:24:19;;;;;;;4.47;4.07;;;21.40;52.30;22.50;101095.00;;;;5047763;28;20562;-54
2022/05/10 07:26:48;;;;;;;5.00;4.50;;;21.40;52.90;22.50;101096.00;;;;5047525;28;20178;-55
2022/05/10 07:29:14;;;;;;;5.57;4.20;;;21.40;52.50;22.50;101102.00;;;;5047505;28;20177;-54
2022/05/10 07:31:40;;;;;;;5.30;4.40;;;21.40;52.80;22.50;101100.00;;;;5046091;28;20687;-55
2022/05/10 07:34:06;;;;;;;4.83;4.30;;;21.40;52.70;22.50;101104.00;;;;5047378;28;20185;-54
2022/05/10 07:36:34;;;;;;;5.10;4.60;;;21.40;52.70;22.50;101095.00;;;;5046259;28;20185;-55
2022/05/10 07:39:05;;;;;;;5.17;4.67;;;21.40;52.70;22.50;101096.00;;;;5046480;28;20181;-55
2022/05/10 07:41:31;;;;;;;5.23;4.37;;;21.30;52.70;22.40;101096.00;;;;5047794;28;20280;-54
2022/05/10 07:43:56;;;;;;;5.00;4.50;;;21.40;52.70;22.40;101101.00;;;;5047818;28;20377;-51
2022/05/10 07:46:22;;;;;;;7.67;4.50;;;21.40;53.30;22.50;101101.00;;;;5048201;28;20208;-53
2022/05/10 07:48:48;;;;;;;7.20;4.30;;;21.40;53.30;22.50;101085.00;;;;5047395;28;20189;-52
2022/05/10 07:51:14;;;;;;;4.63;4.20;;;21.50;53.20;22.50;101090.00;;;;5046901;28;20803;-52
2022/05/10 07:53:41;;;;;;;8.53;4.40;;;21.40;53.20;22.50;101086.00;;;;4959216;28;20184;-51
2022/05/10 07:56:09;;;;;;;9.73;4.73;;;21.40;53.50;22.50;101083.00;;;;5047399;28;20202;-51
2022/05/10 07:58:35;;;;;;;7.53;4.57;;;21.50;53.50;22.50;101084.00;;;;5047361;28;20239;-52
2022/05/10 08:01:03;;;;;;;7.80;4.53;;;21.50;53.50;22.50;101085.00;;;;5046239;28;20184;-52
2022/05/10 08:03:29;;;;;;;6.47;4.53;;;21.40;53.40;22.50;101086.00;;;;5046674;28;20198;-52
2022/05/10 08:05:55;;;;;;;9.80;4.30;;;21.50;53.40;22.50;101084.00;;;;5047106;28;20213;-51
2022/05/10 08:08:22;;;;;;;17.53;4.73;;;21.50;53.60;22.50;101077.00;;;;5046672;28;20186;-51
2022/05/10 08:10:48;;;;;;;12.07;4.40;;;21.50;53.80;22.50;101079.00;;;;5046739;28;20201;-52
2022/05/10 08:13:22;;;;;;;15.10;4.37;;;21.50;54.10;22.50;101073.00;;;;5045401;28;20803;-52
2022/05/10 08:15:48;;;;;;;11.80;4.50;;;21.50;54.40;22.60;101069.00;;;;5046773;28;20197;-52
2022/05/10 08:18:14;;;;;;;6.67;4.27;;;21.60;54.20;22.60;101075.00;;;;5047525;28;20163;-51
2022/05/10 08:20:40;;;;;;;7.37;4.10;;;21.60;54.20;22.60;101080.00;;;;5047383;28;20181;-52
2022/05/10 08:23:06;;;;;;;7.60;4.10;;;21.60;54.20;22.60;101076.00;;;;5046763;28;20265;-52
2022/05/10 08:25:33;;;;;;;6.43;4.20;;;21.60;54.10;22.60;101062.00;;;;5046217;28;20205;-52
2022/05/10 08:27:59;;;;;;;7.43;4.53;;;21.70;54.40;22.70;101075.00;;;;5046491;28;20181;-52
2022/05/10 08:30:25;;;;;;;10.67;4.33;;;21.70;55.50;22.70;101067.00;;;;5046365;28;20868;-52
2022/05/10 08:32:51;;;;;;;11.10;4.20;;;21.70;54.90;22.70;101060.00;;;;5046367;28;20165;-52
2022/05/10 08:35:17;;;;;;;9.20;4.27;;;21.70;55.20;22.70;101060.00;;;;5046542;28;20474;-52
2022/05/10 08:37:43;;;;;;;10.03;4.10;;;21.70;55.60;22.80;101067.00;;;;5046263;28;20155;-52
2022/05/10 08:40:27;;;;;;;6.30;4.20;;;21.70;56.00;22.80;101073.00;;;;5046344;28;20845;-53
2022/05/10 08:42:54;;;;;;;9.30;4.03;;;21.70;56.30;22.80;101066.00;;;;5045170;28;20173;-52
2022/05/10 08:45:20;;;;;;;7.30;4.20;;;21.80;56.60;22.80;101059.00;;;;5045011;28;20553;-51
2022/05/10 08:47:46;;;;;;;6.53;4.27;;;21.80;56.90;22.80;101065.00;;;;5044372;28;20174;-52
2022/05/10 08:50:12;;;;;;;12.67;4.60;;;21.80;58.20;22.90;101056.00;;;;5045211;28;20281;-51
2022/05/10 08:52:44;;;;;;;8.50;4.53;;;21.80;58.30;22.90;101052.00;;;;4976427;28;20261;-52
2022/05/10 08:55:11;;;;;;;8.77;4.97;;;21.80;58.90;22.90;101056.00;;;;5044117;28;20206;-51
2022/05/10 08:57:53;;;;;;;10.23;4.63;;;21.90;58.40;22.90;101053.00;;;;5045475;28;20873;-51
2022/05/10 09:00:40;;;;;;;6.80;4.33;;;21.80;58.30;22.90;101044.00;;;;5043901;28;20236;-52
2022/05/10 09:03:34;;;;;;;8.43;4.20;;;21.90;58.40;23.00;101044.00;;;;5045248;28;20182;-50
2022/05/10 09:06:09;;;;;;;12.40;4.67;;;21.90;58.40;22.90;101043.00;;;;5044206;28;20251;-50
2022/05/10 09:08:46;;;;;;;5.20;4.03;;;21.90;58.30;23.00;101034.00;;;;5044110;28;20158;-51
2022/05/10 09:11:14;;;;;;;7.33;4.33;;;21.90;58.30;23.00;101030.00;;;;5043959;28;20712;-52
2022/05/10 09:13:40;;;;;;;8.07;4.40;;;21.90;58.30;23.00;101027.00;;;;5044315;28;20166;-52
2022/05/10 09:16:09;;;;;;;9.30;4.20;;;22.00;58.30;23.00;101028.00;;;;5043890;28;20198;-52
2022/05/10 09:18:53;;;;;;;5.10;3.80;;;21.90;58.10;23.00;101025.00;;;;5045200;28;20670;-51
2022/05/10 09:21:39;;;;;;;7.07;4.10;;;22.00;58.10;23.00;101028.00;;;;5045551;28;20220;-51
2022/05/10 09:24:49;;;;;;;4.87;4.23;;;22.00;58.00;23.10;101013.00;;;;5043933;28;20167;-51
2022/05/10 09:27:15;;;;;;;7.53;4.27;;;22.00;58.30;23.00;100994.00;;;;5045255;28;20166;-51
2022/05/10 09:29:47;;;;;;;9.47;4.40;;;22.10;58.60;23.10;101019.00;;;;5043884;28;20200;-51
2022/05/10 09:35:23;;;;;;;10.00;4.80;;;22.10;58.40;23.10;100994.00;;;;5045288;28;20350;-50
2022/05/10 09:37:56;;;;;;;9.50;4.60;;;22.10;58.40;23.10;101005.00;;;;5043861;28;20696;-52
2022/05/10 09:40:42;;;;;;;4.80;4.23;;;22.10;58.40;23.10;101001.00;;;;5045069;28;20249;-52
2022/05/10 09:43:32;;;;;;;5.73;3.90;;;22.10;58.50;23.00;101004.00;;;;5044216;28;20204;-52
2022/05/10 09:46:08;;;;;;;6.33;4.30;;;22.20;58.40;23.10;100989.00;;;;5044748;28;20209;-51
2022/05/10 09:48:34;;;;;;;5.17;4.30;;;22.20;58.30;23.20;100979.00;;;;5024772;28;20620;-51
2022/05/10 09:50:59;;;;;;;5.07;4.07;;;22.20;58.30;23.20;100989.00;;;;5023850;28;20213;-52
2022/05/10 09:53:28;;;;;;;7.43;4.40;;;22.20;58.40;23.20;100981.00;;;;4964559;28;20170;-51
2022/05/10 09:56:35;;;;;;;7.57;4.00;;;22.20;58.50;23.30;100986.00;;;;5064154;28;20268;-51
2022/05/10 09:59:05;;;;;;;6.30;4.10;;;22.20;58.40;23.20;100972.00;;;;5044852;28;20781;-52
2022/05/10 10:01:48;;;;;;;4.70;4.10;;;22.30;58.40;23.30;100978.00;;;;5064217;28;20182;-51
2022/05/10 10:04:34;;;;;;;4.83;4.10;;;22.30;58.40;23.10;100975.00;;;;5063059;28;20185;-53
2022/05/10 10:07:28;;;;;;;4.93;4.00;;;22.30;58.30;23.30;100975.00;;;;5064422;28;20165;-51
2022/05/10 10:09:56;;;;;;;4.60;3.83;;;22.30;58.30;23.30;100973.00;;;;5065022;28;20288;-51
2022/05/10 10:12:39;;;;;;;4.70;4.03;;;22.40;58.40;23.30;100941.00;;;;5071291;28;20226;-52
2022/05/10 10:15:40;;;;;;;4.40;3.90;;;22.40;58.20;23.40;100966.00;;;;5070495;28;20188;-52
2022/05/10 10:18:08;;;;;;;5.23;4.00;;;22.40;58.20;23.20;100962.00;;;;5072444;28;20195;-53
2022/05/10 10:20:54;;;;;;;4.20;3.90;;;22.40;58.20;23.40;100953.00;;;;5073077;28;20169;-52
2022/05/10 10:23:53;;;;;;;4.30;3.90;;;22.40;58.20;23.40;100970.00;;;;5076576;28;20799;-51
2022/05/10 10:26:23;;;;;;;4.43;3.80;;;22.50;58.30;23.40;100955.00;;;;5071066;28;20204;-52
2022/05/10 10:29:09;;;;;;;3.90;3.60;;;22.50;58.20;23.50;100955.00;;;;5072250;28;20252;-51
2022/05/10 10:31:44;;;;;;;3.93;3.63;;;22.50;58.10;23.50;100952.00;;;;5071043;28;20173;-51
2022/05/10 10:34:25;;;;;;;3.80;3.50;;;22.50;58.00;23.50;100940.00;;;;5071416;28;20161;-52
2022/05/10 10:37:09;;;;;;;4.50;3.73;;;22.60;58.10;23.50;100964.00;;;;5070747;28;20569;-51
2022/05/10 10:39:43;;;;;;;5.03;3.63;;;22.50;58.00;23.50;100936.00;;;;5070332;28;20576;-52
2022/05/10 10:42:28;;;;;;;4.17;3.77;;;22.60;58.10;23.60;100949.00;;;;5070695;28;20162;-51
2022/05/10 10:44:57;;;;;;;4.30;3.57;;;22.60;58.00;23.60;100946.00;;;;5070774;28;20224;-51
2022/05/10 10:47:26;;;;;;;3.90;3.60;;;22.60;57.90;23.60;100947.00;;;;5059468;28;20541;-52
2022/05/10 10:49:58;;;;;;;3.80;3.50;;;22.60;57.90;23.60;100948.00;;;;5050739;28;20717;-53
2022/05/10 10:52:24;;;;;;;4.10;3.80;;;22.70;57.90;23.70;100937.00;;;;4838141;28;20650;-52
2022/05/10 10:54:49;;;;;;;4.10;3.70;;;22.70;57.70;23.70;100942.00;;;;5049146;28;20729;-51
2022/05/10 10:57:24;;;;;;;3.90;3.60;;;22.70;57.60;23.70;100937.00;;;;5050131;28;20265;-51
2022/05/10 11:00:16;;;;;;;4.13;3.67;;;22.70;57.60;23.70;100945.00;;;;5053686;28;20181;-51
2022/05/10 11:03:07;;;;;;;3.90;3.60;;;22.70;57.50;23.70;100935.00;;;;5036712;28;20202;-52
2022/05/10 11:06:15;;;;;;;4.00;3.57;;;22.80;57.60;23.80;100934.00;;;;5051241;28;20213;-51
2022/05/10 11:09:22;;;;;;;4.30;3.90;;;22.80;57.60;23.80;100924.00;;;;5050553;28;20190;-51
2022/05/10 11:12:18;;;;;;;6.77;4.00;;;22.90;57.00;23.80;100920.00;;;;5049247;28;20182;-51
2022/05/10 11:15:16;;;;;;;4.40;3.57;;;23.00;56.30;23.90;100876.00;;;;5051756;28;20814;-51
2022/05/10 11:17:57;;;;;;;5.03;3.40;;;23.00;57.00;23.90;100912.00;;;;5050555;28;20552;-52
2022/05/10 11:20:24;;;;;;;3.90;3.30;;;23.10;57.10;23.90;100905.00;;;;5051089;28;20240;-52